sensor_id;sensor_type;location;lat;lon;timestamp;temperature;humidity
431;DHT22;202;48.764;9.172;2023-04-28T06:09:11;14.40;69.40
431;DHT22;202;48.764;9.172;2023-04-28T06:11:38;14.30;68.10
431;DHT22;202;48.764;9.172;2023-04-28T06:14:05;14.40;68.70
431;DHT22;202;48.764;9.172;2023-04-28T06:16:35;14.40;69.10
431;DHT22;202;48.764;9.172;2023-04-28T06:19:04;14.40;70.00
431;DHT22;202;48.764;9.172;2023-04-28T06:21:31;14.40;69.60
431;DHT22;202;48.764;9.172;2023-04-28T06:23:58;14.40;71.10
431;DHT22;202;48.764;9.172;2023-04-28T06:26:31;14.30;71.70
431;DHT22;202;48.764;9.172;2023-04-28T06:29:03;14.30;73.40
431;DHT22;202;48.764;9.172;2023-04-28T06:31:30;14.30;73.50
431;DHT22;202;48.764;9.172;2023-04-28T06:33:57;14.30;73.80
431;DHT22;202;48.764;9.172;2023-04-28T06:36:24;14.40;74.40
431;DHT22;202;48.764;9.172;2023-04-28T06:38:52;14.30;73.80
431;DHT22;202;48.764;9.172;2023-04-28T06:41:20;14.50;72.70
431;DHT22;202;48.764;9.172;2023-04-28T06:43:49;14.40;72.60
431;DHT22;202;48.764;9.172;2023-04-28T06:46:17;14.30;73.80
431;DHT22;202;48.764;9.172;2023-04-28T06:48:44;14.20;74.30
431;DHT22;202;48.764;9.172;2023-04-28T06:51:11;14.20;74.60
431;DHT22;202;48.764;9.172;2023-04-28T06:53:38;14.20;75.40
431;DHT22;202;48.764;9.172;2023-04-28T06:56:05;14.30;76.10
431;DHT22;202;48.764;9.172;2023-04-28T06:58:38;14.30;75.40
431;DHT22;202;48.764;9.172;2023-04-28T07:01:08;14.40;75.50
431;DHT22;202;48.764;9.172;2023-04-28T07:03:35;14.40;74.00
431;DHT22;202;48.764;9.172;2023-04-28T07:06:03;14.40;74.80
431;DHT22;202;48.764;9.172;2023-04-28T07:08:31;14.50;74.90
431;DHT22;202;48.764;9.172;2023-04-28T07:11:02;14.60;74.60
431;DHT22;202;48.764;9.172;2023-04-28T07:13:29;14.60;73.30
431;DHT22;202;48.764;9.172;2023-04-28T07:15:56;14.60;73.80
431;DHT22;202;48.764;9.172;2023-04-28T07:18:24;14.70;73.10
431;DHT22;202;48.764;9.172;2023-04-28T07:20:51;14.60;73.50
431;DHT22;202;48.764;9.172;2023-04-28T07:23:18;14.60;73.30
431;DHT22;202;48.764;9.172;2023-04-28T07:25:45;14.70;73.50
431;DHT22;202;48.764;9.172;2023-04-28T07:28:12;14.70;73.80
431;DHT22;202;48.764;9.172;2023-04-28T07:30:39;14.70;73.50
431;DHT22;202;48.764;9.172;2023-04-28T07:33:06;14.70;73.60
431;DHT22;202;48.764;9.172;2023-04-28T07:35:34;14.70;74.40
431;DHT22;202;48.764;9.172;2023-04-28T07:38:04;14.70;74.80
431;DHT22;202;48.764;9.172;2023-04-28T07:40:31;14.70;74.30
431;DHT22;202;48.764;9.172;2023-04-28T07:42:57;14.80;74.50
431;DHT22;202;48.764;9.172;2023-04-28T07:45:26;14.80;75.20
431;DHT22;202;48.764;9.172;2023-04-28T07:47:53;14.90;76.00
431;DHT22;202;48.764;9.172;2023-04-28T07:50:20;14.90;76.00
431;DHT22;202;48.764;9.172;2023-04-28T07:52:51;14.90;76.20
431;DHT22;202;48.764;9.172;2023-04-28T07:55:18;14.90;77.00
431;DHT22;202;48.764;9.172;2023-04-28T07:57:45;14.90;77.10
431;DHT22;202;48.764;9.172;2023-04-28T08:00:15;14.80;77.90
431;DHT22;202;48.764;9.172;2023-04-28T08:03:39;14.90;78.20
431;DHT22;202;48.764;9.172;2023-04-28T08:06:00;14.90;78.80
431;DHT22;202;48.764;9.172;2023-04-28T08:08:39;14.90;80.40
431;DHT22;202;48.764;9.172;2023-04-28T08:11:10;14.90;81.60
431;DHT22;202;48.764;9.172;2023-04-28T08:13:37;14.80;82.60
431;DHT22;202;48.764;9.172;2023-04-28T08:16:07;14.80;83.10
431;DHT22;202;48.764;9.172;2023-04-28T08:18:34;14.80;83.80
431;DHT22;202;48.764;9.172;2023-04-28T08:21:01;14.70;84.60
431;DHT22;202;48.764;9.172;2023-04-28T08:23:28;14.70;86.80
431;DHT22;202;48.764;9.172;2023-04-28T08:25:58;14.80;86.40
431;DHT22;202;48.764;9.172;2023-04-28T08:28:25;14.80;86.40
431;DHT22;202;48.764;9.172;2023-04-28T08:30:53;14.90;86.50
431;DHT22;202;48.764;9.172;2023-04-28T08:33:23;14.90;86.50
431;DHT22;202;48.764;9.172;2023-04-28T08:35:50;14.90;85.80
431;DHT22;202;48.764;9.172;2023-04-28T08:38:17;15.00;85.90
431;DHT22;202;48.764;9.172;2023-04-28T08:40:44;15.00;85.50
431;DHT22;202;48.764;9.172;2023-04-28T08:43:14;15.00;87.20
431;DHT22;202;48.764;9.172;2023-04-28T08:45:42;15.00;88.70
431;DHT22;202;48.764;9.172;2023-04-28T08:48:16;15.00;89.70
431;DHT22;202;48.764;9.172;2023-04-28T08:50:50;15.00;90.40
431;DHT22;202;48.764;9.172;2023-04-28T08:53:25;15.00;90.00
431;DHT22;202;48.764;9.172;2023-04-28T08:55:56;14.90;89.80
431;DHT22;202;48.764;9.172;2023-04-28T08:58:26;15.00;90.00
431;DHT22;202;48.764;9.172;2023-04-28T09:01:12;14.90;90.00
431;DHT22;202;48.764;9.172;2023-04-28T09:03:59;15.10;90.30
431;DHT22;202;48.764;9.172;2023-04-28T09:06:51;15.10;90.10
431;DHT22;202;48.764;9.172;2023-04-28T09:09:23;15.10;90.60
431;DHT22;202;48.764;9.172;2023-04-28T09:12:01;15.00;89.10
431;DHT22;202;48.764;9.172;2023-04-28T09:14:37;15.10;90.60
431;DHT22;202;48.764;9.172;2023-04-28T09:17:24;15.10;90.40
431;DHT22;202;48.764;9.172;2023-04-28T09:20:27;15.10;89.10
431;DHT22;202;48.764;9.172;2023-04-28T09:23:15;15.10;89.80
431;DHT22;202;48.764;9.172;2023-04-28T09:26:13;15.10;89.70
431;DHT22;202;48.764;9.172;2023-04-28T09:28:51;14.90;90.50
431;DHT22;202;48.764;9.172;2023-04-28T09:31:41;14.90;91.90
431;DHT22;202;48.764;9.172;2023-04-28T09:34:34;14.80;92.20
431;DHT22;202;48.764;9.172;2023-04-28T09:37:19;14.90;93.50
431;DHT22;202;48.764;9.172;2023-04-28T09:40:14;15.10;93.80
431;DHT22;202;48.764;9.172;2023-04-28T09:43:14;15.40;93.50
431;DHT22;202;48.764;9.172;2023-04-28T09:49:57;15.70;93.30
431;DHT22;202;48.764;9.172;2023-04-28T09:56:37;16.20;93.10
431;DHT22;202;48.764;9.172;2023-04-28T09:59:18;16.40;93.20
431;DHT22;202;48.764;9.172;2023-04-28T10:02:14;16.60;91.20
431;DHT22;202;48.764;9.172;2023-04-28T10:05:19;16.80;91.30
431;DHT22;202;48.764;9.172;2023-04-28T10:08:13;16.90;88.40
431;DHT22;202;48.764;9.172;2023-04-28T10:10:44;17.10;86.30
431;DHT22;202;48.764;9.172;2023-04-28T10:13:18;17.20;84.90
431;DHT22;202;48.764;9.172;2023-04-28T10:16:09;17.30;86.30
431;DHT22;202;48.764;9.172;2023-04-28T10:18:51;17.40;86.80
431;DHT22;202;48.764;9.172;2023-04-28T10:21:55;17.40;83.30
431;DHT22;202;48.764;9.172;2023-04-28T10:24:28;17.50;85.70
431;DHT22;202;48.764;9.172;2023-04-28T10:40:31;18.00;80.10
431;DHT22;202;48.764;9.172;2023-04-28T10:42:59;18.00;80.80
431;DHT22;202;48.764;9.172;2023-04-28T10:46:08;18.00;80.10
431;DHT22;202;48.764;9.172;2023-04-28T10:48:55;18.10;79.60
431;DHT22;202;48.764;9.172;2023-04-28T13:18:21;19.00;68.40
431;DHT22;202;48.764;9.172;2023-04-28T13:28:21;18.70;72.50
431;DHT22;202;48.764;9.172;2023-04-28T13:31:37;18.70;71.70
431;DHT22;202;48.764;9.172;2023-04-28T13:41:27;18.10;70.30
431;DHT22;202;48.764;9.172;2023-04-28T13:44:05;18.00;71.30
431;DHT22;202;48.764;9.172;2023-04-28T13:46:34;17.90;70.30
431;DHT22;202;48.764;9.172;2023-04-28T13:49:16;17.90;72.00
431;DHT22;202;48.764;9.172;2023-04-28T13:58:45;17.70;74.20
431;DHT22;202;48.764;9.172;2023-04-28T14:01:14;17.70;76.40
431;DHT22;202;48.764;9.172;2023-04-28T14:10:57;17.80;75.60
431;DHT22;202;48.764;9.172;2023-04-28T14:37:30;17.40;82.60
431;DHT22;202;48.764;9.172;2023-04-28T14:40:00;17.50;83.60
431;DHT22;202;48.764;9.172;2023-04-28T14:42:34;17.60;83.10
431;DHT22;202;48.764;9.172;2023-04-28T14:45:06;17.70;84.50
431;DHT22;202;48.764;9.172;2023-04-28T14:47:46;17.80;85.20
431;DHT22;202;48.764;9.172;2023-04-28T18:11:51;17.20;88.70
431;DHT22;202;48.764;9.172;2023-04-28T18:14:36;17.30;90.20
431;DHT22;202;48.764;9.172;2023-04-28T18:20:53;17.30;90.10
431;DHT22;202;48.764;9.172;2023-04-28T18:39:47;17.20;90.60
431;DHT22;202;48.764;9.172;2023-04-28T18:43:01;17.10;90.50
431;DHT22;202;48.764;9.172;2023-04-28T23:48:09;16.20;78.40
431;DHT22;202;48.764;9.172;2023-04-28T23:50:50;16.20;79.40
